createdAt,value
2022-12-04T00:02:13.809Z,28.38
2022-12-04T00:04:46.548Z,23.88
2022-12-04T00:07:19.434Z,21.67
2022-12-04T00:09:52.311Z,23.23
2022-12-04T00:12:25.454Z,26.17
2022-12-04T00:15:24.562Z,26.35
2022-12-04T00:17:51.110Z,22.05
2022-12-04T00:20:23.467Z,20.20
2022-12-04T00:22:56.024Z,26.70
2022-12-04T00:25:30.442Z,25.75
2022-12-04T00:28:02.763Z,22.75
2022-12-04T00:30:35.334Z,25.75
2022-12-04T00:33:13.904Z,29.73
2022-12-04T00:35:46.127Z,27.45
2022-12-04T00:38:18.959Z,18.58
2022-12-04T00:40:53.018Z,25.70
2022-12-04T00:43:25.965Z,21.45
2022-12-04T00:45:59.821Z,27.05
2022-12-04T00:48:33.145Z,21.88
2022-12-04T00:51:08.482Z,23.52
2022-12-04T00:53:44.519Z,25.88
2022-12-04T00:56:22.145Z,24.02
2022-12-04T00:58:59.202Z,21.65
2022-12-04T01:01:32.411Z,23.33
2022-12-04T01:04:04.904Z,24.98
2022-12-04T01:06:37.272Z,23.70
2022-12-04T01:09:09.443Z,23.17
2022-12-04T01:11:41.513Z,26.20
2022-12-04T01:14:13.774Z,25.98
2022-12-04T01:16:47.288Z,21.27
2022-12-04T01:19:19.618Z,27.50
2022-12-04T01:21:52.555Z,23.77
2022-12-04T01:24:24.916Z,22.65
2022-12-04T01:26:56.922Z,23.98
2022-12-04T01:29:29.349Z,25.23
2022-12-04T01:32:02.104Z,23.90
2022-12-04T01:34:36.783Z,25.05
2022-12-04T01:37:09.495Z,23.17
2022-12-04T01:39:41.887Z,24.85
2022-12-04T01:42:15.914Z,27.42
2022-12-04T01:45:26.101Z,22.05
2022-12-04T01:48:23.219Z,24.33
2022-12-04T01:51:18.833Z,25.05
2022-12-04T01:54:01.401Z,26.70
2022-12-04T01:56:43.378Z,19.67
2022-12-04T01:59:24.446Z,19.15
2022-12-04T02:02:10.940Z,22.60
2022-12-04T02:04:47.817Z,26.60
2022-12-04T02:07:20.598Z,21.33
2022-12-04T02:09:56.300Z,22.35
2022-12-04T02:13:00.091Z,23.35
2022-12-04T02:16:08.511Z,23.55
2022-12-04T02:19:09.270Z,24.05
2022-12-04T02:22:08.974Z,22.67
2022-12-04T02:24:58.665Z,24.58
2022-12-04T02:27:41.013Z,22.75
2022-12-04T02:30:39.337Z,22.92
2022-12-04T02:33:20.489Z,24.02
2022-12-04T02:36:25.976Z,20.27
2022-12-04T02:39:42.436Z,22.05
2022-12-04T02:42:59.771Z,22.40
2022-12-04T02:45:45.966Z,26.60
2022-12-04T02:48:42.286Z,26.42
2022-12-04T02:51:20.814Z,27.45
2022-12-04T02:54:00.432Z,25.90
2022-12-04T02:56:43.445Z,26.90
2022-12-04T02:59:28.280Z,24.98
2022-12-04T03:02:35.337Z,19.83
2022-12-04T03:05:18.495Z,25.13
2022-12-04T03:08:06.060Z,23.25
2022-12-04T03:11:11.323Z,28.67
2022-12-04T03:13:51.975Z,25.17
2022-12-04T03:16:36.075Z,25.80
2022-12-04T03:19:18.648Z,23.75
2022-12-04T03:22:00.049Z,24.65
2022-12-04T03:24:44.877Z,24.02
2022-12-04T03:27:32.659Z,27.65
2022-12-04T03:30:24.715Z,26.02
2022-12-04T03:33:20.057Z,30.05
2022-12-04T03:36:10.163Z,27.75
2022-12-04T03:39:01.808Z,26.52
2022-12-04T03:42:01.860Z,28.02
2022-12-04T03:45:03.081Z,26.42
2022-12-04T03:48:05.293Z,27.02
2022-12-04T03:50:55.668Z,26.55
2022-12-04T03:53:50.299Z,24.45
2022-12-04T03:56:31.661Z,24.75
2022-12-04T03:59:16.085Z,29.70
2022-12-04T04:02:03.562Z,28.75
2022-12-04T04:04:41.990Z,25.23
2022-12-04T04:07:51.227Z,23.35
2022-12-04T04:10:27.293Z,25.83
2022-12-04T04:13:20.941Z,25.88
2022-12-04T04:16:35.702Z,21.70
2022-12-04T04:19:51.435Z,24.38
2022-12-04T04:23:02.613Z,27.42
2022-12-04T04:25:56.927Z,29.02
2022-12-04T04:28:34.318Z,29.20
2022-12-04T04:31:39.226Z,25.95
2022-12-04T04:34:40.256Z,26.10
2022-12-04T04:37:53.688Z,25.90
2022-12-04T04:40:56.100Z,27.55
2022-12-04T04:44:20.219Z,24.33
2022-12-04T04:47:06.516Z,24.42
2022-12-04T04:49:49.700Z,25.73
2022-12-04T04:52:23.782Z,31.08
2022-12-04T04:54:56.911Z,27.83
2022-12-04T04:57:35.713Z,29.95
2022-12-04T05:00:10.615Z,29.48
2022-12-04T05:02:46.744Z,24.40
2022-12-04T05:05:21.032Z,26.23
2022-12-04T05:07:53.247Z,27.52
2022-12-04T05:10:25.453Z,29.58
2022-12-04T05:12:57.360Z,27.25
2022-12-04T05:15:29.377Z,24.10
2022-12-04T05:18:01.305Z,31.40
2022-12-04T05:20:33.502Z,27.40
2022-12-04T05:23:10.077Z,24.67
2022-12-04T05:25:42.126Z,23.60
2022-12-04T05:28:14.810Z,27.50
2022-12-04T05:30:57.779Z,28.95
2022-12-04T05:33:31.578Z,26.58
2022-12-04T05:36:07.008Z,23.27
2022-12-04T05:38:41.088Z,30.27
2022-12-04T05:41:13.217Z,29.55
2022-12-04T05:43:46.384Z,28.90
2022-12-04T05:46:18.343Z,27.15
2022-12-04T05:48:50.356Z,24.35
2022-12-04T05:51:22.297Z,29.67
2022-12-04T05:53:54.469Z,24.42
2022-12-04T05:56:26.617Z,24.58
2022-12-04T05:58:58.646Z,23.33
2022-12-04T06:01:30.693Z,24.40
2022-12-04T06:04:02.866Z,20.90
2022-12-04T06:06:35.138Z,26.55
2022-12-04T06:09:09.279Z,25.20
2022-12-04T06:11:43.051Z,30.33
2022-12-04T06:14:16.684Z,28.02
2022-12-04T06:16:48.853Z,24.73
2022-12-04T06:19:22.474Z,23.88
2022-12-04T06:21:54.793Z,25.20
2022-12-04T06:24:26.971Z,23.38
2022-12-04T06:29:52.520Z,28.30
2022-12-04T06:32:24.791Z,27.13
2022-12-04T06:34:56.946Z,19.80
2022-12-04T06:37:28.847Z,22.70
2022-12-04T06:40:00.849Z,25.67
2022-12-04T06:42:33.179Z,22.92
2022-12-04T06:45:06.467Z,26.42
2022-12-04T06:47:39.120Z,23.70
2022-12-04T06:50:11.479Z,24.35
2022-12-04T06:52:44.429Z,24.08
2022-12-04T06:55:16.518Z,25.92
2022-12-04T06:57:48.520Z,27.88
2022-12-04T07:00:20.609Z,24.48
2022-12-04T07:02:52.834Z,24.38
2022-12-04T07:05:24.996Z,22.02
2022-12-04T07:07:58.023Z,23.00
2022-12-04T07:10:30.095Z,25.52
2022-12-04T07:13:02.720Z,25.65
2022-12-04T07:15:36.818Z,26.85
2022-12-04T07:18:08.949Z,19.35
2022-12-04T07:20:41.279Z,25.10
2022-12-04T07:23:13.280Z,18.88
2022-12-04T07:25:45.351Z,21.83
2022-12-04T07:28:17.353Z,26.42
2022-12-04T07:30:49.297Z,28.23
2022-12-04T07:33:21.361Z,23.00
2022-12-04T07:35:58.109Z,23.63
2022-12-04T07:38:31.620Z,21.80
2022-12-04T07:41:06.601Z,30.10
2022-12-04T07:43:40.878Z,27.77
2022-12-04T07:46:19.467Z,20.75
2022-12-04T07:48:58.353Z,24.90
2022-12-04T07:51:30.667Z,33.72
2022-12-04T07:54:04.368Z,23.40
2022-12-04T07:56:36.657Z,23.67
2022-12-04T07:59:08.658Z,24.45
2022-12-04T08:01:40.877Z,24.20
2022-12-04T08:04:12.902Z,22.48
2022-12-04T08:06:45.065Z,27.42
2022-12-04T08:09:17.259Z,24.67
2022-12-04T08:11:49.319Z,30.10
2022-12-04T08:14:21.695Z,24.17
2022-12-04T08:16:53.804Z,27.70
2022-12-04T08:19:26.028Z,27.00
2022-12-04T08:21:58.013Z,25.45
2022-12-04T08:24:30.230Z,26.75
2022-12-04T08:27:02.479Z,26.88
2022-12-04T08:29:34.956Z,23.05
2022-12-04T08:32:07.535Z,28.63
2022-12-04T08:34:39.883Z,25.65
2022-12-04T08:37:12.322Z,24.42
2022-12-04T08:39:44.707Z,31.05
2022-12-04T08:42:16.875Z,30.83
2022-12-04T08:44:48.966Z,27.88
2022-12-04T08:47:20.911Z,28.52
2022-12-04T08:49:53.079Z,25.30
2022-12-04T08:52:25.304Z,26.63
2022-12-04T08:54:57.434Z,27.80
2022-12-04T08:57:29.647Z,24.73
2022-12-04T09:00:01.838Z,20.33
2022-12-04T09:02:36.665Z,23.02
2022-12-04T09:05:10.121Z,22.30
2022-12-04T09:07:42.171Z,24.33
2022-12-04T09:10:14.712Z,26.33
2022-12-04T09:12:47.009Z,27.38
2022-12-04T09:15:22.533Z,26.52
2022-12-04T09:17:55.746Z,28.30
2022-12-04T09:20:27.937Z,25.23
2022-12-04T09:23:04.986Z,30.17
2022-12-04T09:25:38.438Z,26.05
2022-12-04T09:28:10.537Z,27.10
2022-12-04T09:30:42.535Z,24.60
2022-12-04T09:33:15.224Z,24.25
2022-12-04T09:35:47.331Z,24.75
2022-12-04T09:38:19.714Z,26.48
2022-12-04T09:41:13.369Z,24.20
2022-12-04T09:44:11.454Z,24.95
2022-12-04T09:47:04.763Z,23.70
2022-12-04T09:49:58.772Z,25.40
2022-12-04T09:52:52.297Z,25.80
2022-12-04T09:55:36.792Z,23.02
2022-12-04T09:58:32.697Z,26.02
2022-12-04T10:01:47.337Z,25.17
2022-12-04T10:04:22.934Z,28.95
2022-12-04T10:07:01.469Z,26.95
2022-12-04T10:10:15.605Z,26.75
2022-12-04T10:13:39.763Z,27.08
2022-12-04T10:16:48.444Z,26.63
2022-12-04T10:19:58.232Z,24.98
2022-12-04T10:23:22.045Z,21.15
2022-12-04T10:26:18.274Z,25.25
2022-12-04T10:29:12.523Z,24.77
2022-12-04T10:32:14.910Z,23.50
2022-12-04T10:34:54.949Z,26.42
2022-12-04T10:37:33.491Z,24.90
2022-12-04T10:40:37.899Z,26.90
2022-12-04T10:43:43.330Z,24.73
2022-12-04T10:46:34.068Z,26.05
2022-12-04T10:49:23.166Z,28.20
2022-12-04T10:51:58.710Z,24.15
2022-12-04T10:54:37.526Z,21.02
2022-12-04T10:57:41.341Z,21.20
2022-12-04T11:00:34.251Z,29.35
2022-12-04T11:03:24.877Z,23.73
2022-12-04T11:06:11.654Z,20.67
2022-12-04T11:08:51.214Z,23.65
2022-12-04T11:11:35.138Z,17.95
2022-12-04T11:14:16.002Z,27.52
2022-12-04T11:17:06.254Z,21.40
2022-12-04T11:19:44.447Z,25.23
2022-12-04T11:22:19.779Z,25.20
2022-12-04T11:24:58.936Z,24.05
2022-12-04T11:27:35.303Z,22.65
2022-12-04T11:30:15.197Z,20.08
2022-12-04T11:32:55.141Z,22.75
2022-12-04T11:35:30.541Z,20.40
2022-12-04T11:38:13.354Z,23.08
2022-12-04T11:40:57.124Z,17.95
2022-12-04T11:43:33.930Z,24.85
2022-12-04T11:46:26.903Z,21.63
2022-12-04T11:49:04.131Z,21.15
2022-12-04T11:51:52.116Z,22.77
2022-12-04T11:54:57.471Z,22.55
2022-12-04T11:58:05.910Z,19.08
2022-12-04T12:01:07.095Z,20.52
2022-12-04T12:04:29.902Z,21.73
2022-12-04T12:07:24.988Z,19.58
2022-12-04T12:10:32.220Z,21.35
2022-12-04T12:13:33.477Z,20.40
2022-12-04T12:16:37.230Z,18.60
2022-12-04T12:19:42.063Z,20.42
2022-12-04T12:22:52.235Z,22.95
2022-12-04T12:26:04.554Z,18.40
2022-12-04T12:29:20.451Z,17.65
2022-12-04T12:32:40.984Z,17.77
2022-12-04T12:36:09.006Z,24.40
2022-12-04T12:39:07.894Z,17.50
2022-12-04T12:41:56.912Z,21.65
2022-12-04T12:45:00.095Z,20.88
2022-12-04T12:47:58.975Z,19.65
2022-12-04T12:51:08.848Z,20.23
2022-12-04T12:54:31.241Z,16.30
2022-12-04T12:57:28.936Z,20.77
2022-12-04T13:00:17.494Z,23.05
2022-12-04T13:03:02.724Z,17.95
2022-12-04T13:06:04.171Z,20.10
2022-12-04T13:09:17.806Z,17.20
2022-12-04T13:12:12.371Z,19.00
2022-12-04T13:14:49.156Z,18.80
2022-12-04T13:17:37.064Z,16.65
2022-12-04T13:20:23.097Z,23.48
2022-12-04T13:23:20.530Z,20.35
2022-12-04T13:26:49.478Z,23.27
2022-12-04T13:30:03.381Z,22.52
2022-12-04T13:33:03.655Z,19.40
2022-12-04T13:36:28.103Z,18.48
2022-12-04T13:39:41.836Z,23.60
2022-12-04T13:42:37.705Z,19.08
2022-12-04T13:45:25.018Z,19.75
2022-12-04T13:48:03.941Z,16.40
2022-12-04T13:50:39.727Z,20.80
2022-12-04T13:53:33.284Z,21.55
2022-12-04T13:56:24.792Z,20.58
2022-12-04T13:59:04.782Z,22.02
2022-12-04T14:02:06.493Z,20.05
2022-12-04T14:05:00.371Z,18.92
2022-12-04T14:08:08.069Z,19.15
2022-12-04T14:11:24.888Z,18.88
2022-12-04T14:14:04.911Z,17.63
2022-12-04T14:17:01.362Z,20.02
2022-12-04T14:19:46.549Z,22.02
2022-12-04T14:22:36.619Z,19.02
2022-12-04T14:25:13.389Z,21.50
2022-12-04T14:27:56.777Z,18.67
2022-12-04T14:30:36.791Z,17.45
2022-12-04T14:33:21.198Z,21.83
2022-12-04T14:36:16.287Z,17.83
2022-12-04T14:39:43.591Z,20.40
2022-12-04T14:42:29.786Z,19.75
2022-12-04T14:45:27.604Z,18.15
2022-12-04T14:48:30.001Z,20.20
2022-12-04T14:51:54.624Z,19.67
2022-12-04T14:55:13.187Z,25.02
2022-12-04T14:58:32.513Z,26.30
2022-12-04T15:01:29.675Z,16.95
2022-12-04T15:04:34.083Z,24.15
2022-12-04T15:07:07.728Z,22.10
2022-12-04T15:10:10.469Z,20.27
2022-12-04T15:13:03.186Z,18.60
2022-12-04T15:15:36.523Z,23.20
2022-12-04T15:18:19.447Z,27.42
2022-12-04T15:21:07.631Z,20.13
2022-12-04T15:23:42.471Z,22.27
2022-12-04T15:26:22.017Z,17.45
2022-12-04T15:29:01.672Z,26.65
2022-12-04T15:31:37.415Z,21.70
2022-12-04T15:34:18.258Z,24.60
2022-12-04T15:37:08.117Z,23.35
2022-12-04T15:40:05.147Z,23.90
2022-12-04T15:42:39.599Z,22.13
2022-12-04T15:45:13.144Z,26.15
2022-12-04T15:47:59.540Z,25.33
2022-12-04T15:50:32.941Z,22.98
2022-12-04T15:53:15.227Z,20.00
2022-12-04T15:55:58.305Z,23.27
2022-12-04T15:58:38.945Z,24.15
2022-12-04T16:01:16.185Z,23.10
2022-12-04T16:03:55.966Z,27.00
2022-12-04T16:06:32.924Z,20.77
2022-12-04T16:09:25.899Z,29.58
2022-12-04T16:12:15.331Z,23.80
2022-12-04T16:14:53.083Z,23.45
2022-12-04T16:17:36.963Z,23.45
2022-12-04T16:20:12.058Z,21.30
2022-12-04T16:22:46.182Z,25.90
2022-12-04T16:25:22.594Z,23.83
2022-12-04T16:27:56.562Z,24.50
2022-12-04T16:30:33.854Z,30.60
2022-12-04T16:33:09.554Z,31.05
2022-12-04T16:35:47.881Z,40.63
2022-12-04T16:38:22.236Z,28.05
2022-12-04T16:40:55.055Z,26.30
2022-12-04T16:43:28.168Z,28.33
2022-12-04T16:46:02.071Z,26.77
2022-12-04T16:48:36.422Z,31.48
2022-12-04T16:51:18.467Z,31.63
2022-12-04T16:53:56.401Z,28.27
2022-12-04T16:56:29.709Z,31.60
2022-12-04T16:59:07.729Z,29.50
2022-12-04T17:01:48.863Z,32.65
2022-12-04T17:04:26.505Z,28.48
2022-12-04T17:06:59.433Z,34.80
2022-12-04T17:09:32.844Z,32.28
2022-12-04T17:12:09.073Z,25.42
2022-12-04T17:14:42.503Z,35.60
2022-12-04T17:17:15.077Z,33.03
2022-12-04T17:19:47.982Z,29.40
2022-12-04T17:22:31.523Z,42.55
2022-12-04T17:25:06.234Z,30.35
2022-12-04T17:27:41.203Z,32.58
2022-12-04T17:30:15.352Z,30.13
2022-12-04T17:32:50.207Z,34.28
2022-12-04T17:35:24.499Z,32.83
2022-12-04T17:38:00.736Z,30.83
2022-12-04T17:40:38.630Z,30.10
2022-12-04T17:43:16.313Z,28.85
2022-12-04T17:45:51.677Z,35.60
2022-12-04T17:48:25.870Z,30.77
2022-12-04T17:51:21.784Z,32.80
2022-12-04T17:53:58.532Z,43.95
2022-12-04T17:56:32.596Z,41.05
2022-12-04T17:59:08.129Z,42.38
2022-12-04T18:01:41.566Z,30.20
2022-12-04T18:04:15.549Z,37.05
2022-12-04T18:06:49.627Z,40.17
2022-12-04T18:09:24.705Z,34.20
2022-12-04T18:11:59.300Z,36.80
2022-12-04T18:14:35.122Z,33.92
2022-12-04T18:17:08.858Z,28.83
2022-12-04T18:19:42.248Z,30.25
2022-12-04T18:22:16.639Z,31.02
2022-12-04T18:24:53.263Z,29.02
2022-12-04T18:27:26.422Z,33.88
2022-12-04T18:30:02.080Z,32.78
2022-12-04T18:32:37.272Z,31.10
2022-12-04T18:35:13.511Z,27.30
2022-12-04T18:37:48.927Z,45.40
2022-12-04T18:40:25.723Z,32.47
2022-12-04T18:43:03.468Z,22.55
2022-12-04T18:45:37.670Z,37.22
2022-12-04T18:48:11.863Z,31.33
2022-12-04T18:50:45.414Z,36.97
2022-12-04T18:53:19.480Z,31.83
2022-12-04T18:55:53.691Z,30.85
2022-12-04T18:58:28.245Z,30.15
2022-12-04T19:01:12.100Z,33.92
2022-12-04T19:03:49.354Z,32.33
2022-12-04T19:06:39.337Z,31.42
2022-12-04T19:09:40.852Z,35.13
2022-12-04T19:12:17.996Z,31.50
2022-12-04T19:14:52.087Z,33.53
2022-12-04T19:17:30.110Z,30.25
2022-12-04T19:20:04.150Z,31.48
2022-12-04T19:22:39.386Z,33.92
2022-12-04T19:25:13.428Z,27.88
2022-12-04T19:27:47.244Z,28.27
2022-12-04T19:30:21.528Z,32.45
2022-12-04T19:32:55.621Z,26.92
2022-12-04T19:35:32.552Z,29.73
2022-12-04T19:38:05.972Z,25.27
2022-12-04T19:40:42.340Z,25.48
2022-12-04T19:43:17.124Z,26.10
2022-12-04T19:46:00.098Z,24.02
2022-12-04T19:48:36.380Z,23.60
2022-12-04T19:51:19.365Z,28.60
2022-12-04T19:53:53.573Z,29.45
2022-12-04T19:56:33.100Z,29.88
2022-12-04T19:59:08.404Z,25.92
2022-12-04T20:01:41.596Z,28.17
2022-12-04T20:04:16.003Z,26.02
2022-12-04T20:06:48.919Z,51.00
2022-12-04T20:09:24.265Z,34.28
2022-12-04T20:11:59.005Z,26.33
2022-12-04T20:14:38.424Z,27.63
2022-12-04T20:17:13.761Z,27.88
2022-12-04T20:19:48.175Z,26.58
2022-12-04T20:22:22.312Z,26.48
2022-12-04T20:24:55.548Z,23.70
2022-12-04T20:27:28.897Z,27.85
2022-12-04T20:30:02.414Z,27.08
2022-12-04T20:32:41.940Z,26.95
2022-12-04T20:35:19.888Z,25.80
2022-12-04T20:37:53.105Z,33.90
2022-12-04T20:40:26.568Z,29.33
2022-12-04T20:43:01.855Z,32.50
2022-12-04T20:45:37.021Z,34.33
2022-12-04T20:48:10.715Z,28.60
2022-12-04T20:50:46.630Z,30.30
2022-12-04T20:53:20.968Z,27.65
2022-12-04T20:55:58.938Z,33.05
2022-12-04T20:58:32.524Z,29.45
2022-12-04T21:01:08.278Z,28.98
2022-12-04T21:03:46.110Z,32.83
2022-12-04T21:06:28.430Z,32.28
2022-12-04T21:09:11.096Z,28.90
2022-12-04T21:11:55.637Z,31.52
2022-12-04T21:14:50.027Z,26.00
2022-12-04T21:17:42.626Z,32.17
2022-12-04T21:20:15.986Z,30.13
2022-12-04T21:22:49.963Z,32.85
2022-12-04T21:25:23.456Z,28.67
2022-12-04T21:27:58.417Z,26.85
2022-12-04T21:30:32.127Z,35.50
2022-12-04T21:33:06.014Z,30.20
2022-12-04T21:35:40.355Z,27.83
2022-12-04T21:38:13.438Z,29.00
2022-12-04T21:40:50.779Z,30.75
2022-12-04T21:43:25.414Z,28.95
2022-12-04T21:46:09.687Z,30.05
2022-12-04T21:48:43.543Z,27.02
2022-12-04T21:51:48.269Z,32.15
2022-12-04T21:54:11.865Z,25.45
2022-12-04T21:56:45.276Z,33.85
2022-12-04T21:59:18.386Z,30.23
2022-12-04T22:01:52.059Z,27.83
2022-12-04T22:04:26.532Z,27.42
2022-12-04T22:06:59.433Z,31.58
2022-12-04T22:09:34.175Z,30.17
2022-12-04T22:12:26.855Z,28.08
2022-12-04T22:15:01.692Z,27.25
2022-12-04T22:17:34.883Z,27.35
2022-12-04T22:20:08.153Z,27.95
2022-12-04T22:22:41.484Z,28.77
2022-12-04T22:25:14.832Z,27.42
2022-12-04T22:27:47.902Z,32.90
2022-12-04T22:30:20.865Z,27.02
2022-12-04T22:32:55.325Z,31.23
2022-12-04T22:35:28.806Z,23.80
2022-12-04T22:38:03.371Z,29.70
2022-12-04T22:40:37.133Z,30.33
2022-12-04T22:43:09.965Z,31.58
2022-12-04T22:46:02.550Z,36.95
2022-12-04T22:48:39.467Z,28.10
2022-12-04T22:51:16.398Z,27.08
2022-12-04T22:53:53.276Z,27.27
2022-12-04T22:56:29.585Z,22.40
2022-12-04T22:59:02.818Z,28.88
2022-12-04T23:01:35.763Z,24.80
2022-12-04T23:04:08.389Z,23.10
2022-12-04T23:06:41.181Z,21.08
2022-12-04T23:09:15.943Z,21.63
2022-12-04T23:11:55.900Z,21.67
2022-12-04T23:14:29.073Z,28.92
2022-12-04T23:17:01.423Z,19.80
2022-12-04T23:19:34.025Z,18.95
2022-12-04T23:22:06.519Z,17.33
2022-12-04T23:24:39.050Z,23.48
2022-12-04T23:27:12.100Z,24.52
2022-12-04T23:29:54.235Z,24.88
2022-12-04T23:32:26.345Z,19.83
2022-12-04T23:34:58.468Z,21.65
2022-12-04T23:37:30.686Z,23.95
2022-12-04T23:40:04.318Z,22.25
2022-12-04T23:42:37.088Z,20.48
2022-12-04T23:45:09.856Z,22.55
2022-12-04T23:47:41.968Z,19.40
2022-12-04T23:50:14.372Z,22.50
2022-12-04T23:52:46.510Z,23.02
2022-12-04T23:55:18.555Z,17.10
2022-12-04T23:57:50.748Z,23.67
